createdAt,value
2022-08-17T00:00:33.294Z,63.93
2022-08-17T00:03:11.566Z,63.83
2022-08-17T00:05:45.494Z,63.88
2022-08-17T00:08:14.855Z,64.17
2022-08-17T00:10:43.928Z,63.79
2022-08-17T00:13:17.189Z,63.88
2022-08-17T00:15:45.716Z,64.12
2022-08-17T00:19:01.768Z,63.92
2022-08-17T00:21:10.359Z,63.83
2022-08-17T00:23:39.464Z,63.85
2022-08-17T00:26:15.966Z,64.08
2022-08-17T00:29:04.304Z,63.86
2022-08-17T00:31:32.161Z,64.36
2022-08-17T00:34:00.358Z,64.31
2022-08-17T00:36:29.544Z,64.23
2022-08-17T00:38:57.303Z,64.33
2022-08-17T00:41:27.292Z,64.47
2022-08-17T00:43:58.961Z,64.12
2022-08-17T00:46:30.037Z,64.39
2022-08-17T00:48:58.476Z,64.36
2022-08-17T00:51:32.855Z,64.40
2022-08-17T00:54:05.584Z,64.58
2022-08-17T00:56:37.223Z,65.00
2022-08-17T00:59:08.145Z,65.17
2022-08-17T01:01:36.185Z,65.11
2022-08-17T01:04:05.299Z,65.13
2022-08-17T01:06:34.759Z,65.18
2022-08-17T01:09:04.876Z,65.20
2022-08-17T01:11:36.106Z,65.68
2022-08-17T01:14:04.589Z,65.51
2022-08-17T01:16:33.252Z,65.59
2022-08-17T01:19:03.068Z,65.50
2022-08-17T01:21:47.200Z,65.65
2022-08-17T01:24:16.496Z,65.69
2022-08-17T01:26:45.468Z,65.70
2022-08-17T01:29:14.037Z,65.89
2022-08-17T01:31:45.831Z,65.93
2022-08-17T01:34:16.745Z,65.77
2022-08-17T01:36:47.488Z,65.70
2022-08-17T01:39:22.218Z,65.87
2022-08-17T01:41:54.392Z,66.04
2022-08-17T01:44:23.916Z,66.22
2022-08-17T01:46:51.852Z,66.46
2022-08-17T01:49:20.168Z,66.39
2022-08-17T01:51:47.962Z,66.41
2022-08-17T01:54:19.652Z,66.49
2022-08-17T01:56:50.256Z,66.46
2022-08-17T01:59:20.209Z,66.61
2022-08-17T02:01:58.820Z,66.55
2022-08-17T02:04:26.819Z,66.56
2022-08-17T02:06:54.755Z,66.65
2022-08-17T02:09:26.074Z,66.69
2022-08-17T02:11:59.208Z,66.65
2022-08-17T02:14:27.808Z,66.30
2022-08-17T02:16:56.085Z,66.52
2022-08-17T02:19:23.980Z,66.74
2022-08-17T02:21:55.190Z,66.95
2022-08-17T02:24:59.674Z,66.63
2022-08-17T02:27:16.244Z,66.75
2022-08-17T02:29:44.029Z,66.68
2022-08-17T02:32:25.289Z,66.70
2022-08-17T02:34:55.802Z,66.80
2022-08-17T02:37:23.579Z,66.66
2022-08-17T02:39:52.800Z,66.79
2022-08-17T02:42:27.649Z,67.05
2022-08-17T02:44:55.510Z,67.04
2022-08-17T02:47:23.499Z,66.94
2022-08-17T02:49:55.391Z,66.71
2022-08-17T02:52:53.640Z,67.09
2022-08-17T02:55:20.514Z,67.15
2022-08-17T02:57:49.342Z,66.96
2022-08-17T03:00:22.115Z,67.05
2022-08-17T03:02:51.178Z,66.83
2022-08-17T03:05:22.443Z,67.27
2022-08-17T03:07:50.972Z,67.38
2022-08-17T03:10:21.780Z,67.31
2022-08-17T03:12:50.271Z,67.03
2022-08-17T03:15:23.443Z,66.99
2022-08-17T03:17:52.308Z,66.90
2022-08-17T03:20:21.476Z,66.72
2022-08-17T03:22:53.303Z,66.86
2022-08-17T03:25:25.973Z,67.25
2022-08-17T03:27:54.775Z,67.22
2022-08-17T03:30:23.984Z,67.38
2022-08-17T03:32:54.740Z,67.34
2022-08-17T03:35:25.628Z,67.60
2022-08-17T03:38:00.818Z,67.37
2022-08-17T03:40:34.779Z,67.63
2022-08-17T03:43:21.504Z,67.25
2022-08-17T03:46:27.361Z,67.32
2022-08-17T03:49:27.248Z,67.44
2022-08-17T03:52:13.263Z,67.33
2022-08-17T03:54:59.106Z,67.55
2022-08-17T03:57:29.071Z,67.54
2022-08-17T03:59:58.382Z,67.39
2022-08-17T04:02:29.588Z,67.89
2022-08-17T04:04:58.477Z,67.71
2022-08-17T04:07:28.527Z,67.53
2022-08-17T04:09:57.790Z,67.29
2022-08-17T04:12:26.367Z,67.68
2022-08-17T04:14:55.556Z,67.47
2022-08-17T04:17:26.031Z,67.92
2022-08-17T04:19:55.278Z,67.69
2022-08-17T04:22:30.996Z,68.05
2022-08-17T04:25:09.366Z,67.63
2022-08-17T04:27:37.476Z,67.16
2022-08-17T04:30:08.188Z,67.62
2022-08-17T04:33:00.617Z,67.84
2022-08-17T04:35:38.420Z,67.90
2022-08-17T04:38:07.202Z,67.96
2022-08-17T04:40:53.043Z,67.90
2022-08-17T04:43:23.259Z,67.66
2022-08-17T04:45:56.583Z,67.65
2022-08-17T04:48:35.500Z,67.74
2022-08-17T04:51:10.566Z,67.45
2022-08-17T04:53:40.002Z,67.27
2022-08-17T04:56:11.752Z,67.78
2022-08-17T04:58:45.889Z,67.67
2022-08-17T05:01:16.297Z,67.53
2022-08-17T05:03:51.421Z,67.33
2022-08-17T05:06:19.196Z,67.45
2022-08-17T05:08:46.969Z,67.37
2022-08-17T05:11:15.713Z,67.56
2022-08-17T05:13:43.578Z,67.60
2022-08-17T05:16:12.018Z,67.26
2022-08-17T05:18:41.272Z,66.85
2022-08-17T05:21:09.894Z,66.74
2022-08-17T05:23:42.667Z,66.53
2022-08-17T05:26:24.743Z,66.88
2022-08-17T05:28:56.971Z,66.22
2022-08-17T05:31:26.549Z,66.17
2022-08-17T05:33:55.774Z,65.67
2022-08-17T05:36:41.763Z,65.83
2022-08-17T05:39:15.990Z,65.06
2022-08-17T05:41:44.671Z,64.26
2022-08-17T05:44:12.488Z,63.85
2022-08-17T05:46:44.669Z,62.71
2022-08-17T05:49:17.061Z,62.33
2022-08-17T05:52:06.263Z,62.98
2022-08-17T05:54:45.231Z,62.64
2022-08-17T05:57:47.533Z,62.45
2022-08-17T06:00:30.112Z,62.68
2022-08-17T06:03:37.762Z,62.06
2022-08-17T06:06:25.094Z,62.30
2022-08-17T06:09:14.769Z,62.76
2022-08-17T06:11:48.145Z,62.38
2022-08-17T06:14:39.776Z,62.52
2022-08-17T06:17:12.323Z,62.67
2022-08-17T06:19:43.535Z,62.50
2022-08-17T06:22:16.395Z,62.09
2022-08-17T06:24:49.983Z,62.30
2022-08-17T06:27:24.432Z,61.65
2022-08-17T06:29:56.964Z,60.87
2022-08-17T06:32:26.048Z,59.82
2022-08-17T06:34:55.164Z,59.31
2022-08-17T06:37:49.588Z,59.83
2022-08-17T06:40:33.681Z,60.17
2022-08-17T06:43:16.550Z,60.76
2022-08-17T06:45:49.409Z,60.31
2022-08-17T06:48:25.374Z,60.22
2022-08-17T06:50:58.536Z,60.64
2022-08-17T06:53:32.071Z,60.37
2022-08-17T06:56:06.114Z,58.80
2022-08-17T06:58:35.663Z,58.69
2022-08-17T07:01:09.246Z,56.83
2022-08-17T07:03:42.471Z,54.91
2022-08-17T07:06:16.711Z,53.71
2022-08-17T07:08:58.907Z,53.45
2022-08-17T07:11:32.980Z,53.16
2022-08-17T07:14:17.330Z,50.79
2022-08-17T07:16:48.110Z,47.80
2022-08-17T07:19:17.705Z,50.57
2022-08-17T07:21:54.924Z,51.08
2022-08-17T07:24:41.475Z,50.28
2022-08-17T07:27:15.254Z,51.14
2022-08-17T07:29:49.011Z,52.28
2022-08-17T07:32:20.097Z,51.98
2022-08-17T07:35:11.280Z,50.77
2022-08-17T07:37:41.071Z,49.68
2022-08-17T07:40:26.364Z,49.46
2022-08-17T07:43:21.959Z,48.86
2022-08-17T07:46:19.236Z,46.32
2022-08-17T07:48:50.540Z,45.60
2022-08-17T07:51:25.967Z,44.99
2022-08-17T07:54:04.809Z,42.88
2022-08-17T07:56:45.855Z,41.41
2022-08-17T07:59:18.010Z,42.21
2022-08-17T08:02:05.420Z,41.41
2022-08-17T08:04:59.212Z,43.27
2022-08-17T08:07:29.376Z,42.33
2022-08-17T08:10:10.616Z,41.94
2022-08-17T08:12:42.479Z,43.59
2022-08-17T08:15:18.487Z,46.68
2022-08-17T08:17:51.271Z,45.03
2022-08-17T08:20:51.146Z,47.27
2022-08-17T08:23:18.632Z,46.84
2022-08-17T08:25:57.306Z,47.08
2022-08-17T08:28:31.438Z,48.01
2022-08-17T08:31:09.532Z,47.87
2022-08-17T08:33:51.766Z,48.33
2022-08-17T08:37:12.982Z,49.50
2022-08-17T08:39:38.243Z,49.04
2022-08-17T08:42:16.770Z,49.78
2022-08-17T08:45:00.999Z,50.72
2022-08-17T08:47:53.130Z,50.78
2022-08-17T08:50:37.086Z,51.49
2022-08-17T08:53:28.574Z,51.01
2022-08-17T08:56:04.053Z,51.89
2022-08-17T08:58:42.079Z,51.50
2022-08-17T09:01:19.471Z,53.07
2022-08-17T09:04:25.587Z,52.17
2022-08-17T09:07:10.153Z,53.06
2022-08-17T09:09:50.520Z,54.71
2022-08-17T09:12:26.279Z,54.59
2022-08-17T09:15:01.460Z,54.90
2022-08-17T09:17:38.260Z,55.34
2022-08-17T09:20:27.670Z,55.82
2022-08-17T09:23:03.867Z,55.84
2022-08-17T09:25:37.159Z,55.60
2022-08-17T09:28:08.479Z,56.01
2022-08-17T09:30:46.930Z,55.99
2022-08-17T09:33:22.696Z,56.51
2022-08-17T09:35:55.055Z,57.09
2022-08-17T09:38:32.482Z,57.02
2022-08-17T09:41:10.238Z,57.08
2022-08-17T09:43:45.276Z,56.31
2022-08-17T09:46:18.637Z,55.02
2022-08-17T09:48:55.383Z,53.24
2022-08-17T09:51:30.263Z,50.40
2022-08-17T09:54:14.768Z,47.68
2022-08-17T09:57:18.134Z,43.89
2022-08-17T09:59:57.922Z,43.89
2022-08-17T10:02:43.615Z,42.54
2022-08-17T10:05:18.593Z,40.61
2022-08-17T10:07:55.932Z,38.91
2022-08-17T10:10:29.622Z,38.31
2022-08-17T10:13:10.791Z,36.06
2022-08-17T10:15:49.477Z,32.52
2022-08-17T10:18:34.192Z,30.14
2022-08-17T10:21:25.870Z,29.15
2022-08-17T10:24:18.613Z,27.93
2022-08-17T10:26:56.772Z,26.86
2022-08-17T10:29:46.241Z,25.61
2022-08-17T10:32:28.552Z,25.08
2022-08-17T10:35:19.056Z,26.35
2022-08-17T10:38:01.209Z,27.71
2022-08-17T10:40:37.801Z,24.74
2022-08-17T10:43:22.759Z,22.60
2022-08-17T10:46:30.531Z,21.43
2022-08-17T10:49:48.492Z,23.18
2022-08-17T11:07:57.191Z,22.43
2022-08-17T11:11:13.673Z,24.21
2022-08-17T11:45:51.785Z,31.93
2022-08-17T11:50:14.652Z,31.71
2022-08-17T11:54:53.605Z,31.22
2022-08-17T11:59:20.723Z,30.47
2022-08-17T13:05:03.981Z,35.58
2022-08-17T13:08:59.637Z,35.09
2022-08-17T13:25:40.548Z,35.94
2022-08-17T14:01:28.233Z,36.42
2022-08-17T14:04:11.781Z,36.77
2022-08-17T14:10:20.066Z,37.43
2022-08-17T14:13:29.130Z,36.70
2022-08-17T14:16:39.566Z,36.37
2022-08-17T14:19:16.382Z,36.65
2022-08-17T14:21:48.786Z,36.45
2022-08-17T14:24:38.955Z,36.67
2022-08-17T14:27:17.701Z,37.59
2022-08-17T14:29:54.317Z,36.59
2022-08-17T14:32:29.867Z,37.03
2022-08-17T14:35:00.754Z,37.18
2022-08-17T14:37:31.396Z,37.30
2022-08-17T14:40:02.927Z,38.20
2022-08-17T14:42:32.755Z,39.40
2022-08-17T14:45:04.450Z,39.10
2022-08-17T14:47:39.557Z,39.05
2022-08-17T14:50:13.504Z,39.33
2022-08-17T14:52:48.505Z,39.68
2022-08-17T14:55:21.593Z,39.89
2022-08-17T14:57:52.236Z,39.81
2022-08-17T15:00:24.029Z,40.04
2022-08-17T15:02:56.722Z,40.18
2022-08-17T15:05:31.906Z,39.00
2022-08-17T15:08:02.151Z,39.50
2022-08-17T15:10:32.412Z,39.27
2022-08-17T15:13:01.503Z,40.44
2022-08-17T15:15:30.098Z,40.02
2022-08-17T15:17:59.947Z,40.26
2022-08-17T15:20:31.281Z,40.85
2022-08-17T15:22:59.850Z,40.01
2022-08-17T15:25:30.269Z,40.92
2022-08-17T15:27:59.037Z,41.17
2022-08-17T15:30:28.482Z,41.78
2022-08-17T15:32:58.803Z,42.41
2022-08-17T15:35:35.613Z,41.23
2022-08-17T15:38:11.556Z,41.23
2022-08-17T15:40:42.346Z,41.41
2022-08-17T15:43:13.915Z,41.57
2022-08-17T15:45:42.195Z,41.63
2022-08-17T15:48:10.640Z,42.52
2022-08-17T15:50:39.810Z,41.39
2022-08-17T15:53:07.736Z,41.34
2022-08-17T15:55:36.627Z,42.21
2022-08-17T15:58:04.735Z,42.54
2022-08-17T16:00:44.115Z,41.93
2022-08-17T16:03:58.211Z,43.05
2022-08-17T16:06:09.831Z,41.95
2022-08-17T16:08:41.685Z,41.51
2022-08-17T16:11:10.912Z,41.33
2022-08-17T16:13:39.513Z,41.77
2022-08-17T16:16:08.310Z,42.64
2022-08-17T16:18:36.499Z,42.96
2022-08-17T16:21:21.835Z,41.52
2022-08-17T16:23:53.378Z,42.02
2022-08-17T16:26:22.873Z,42.33
2022-08-17T16:28:51.298Z,41.85
2022-08-17T16:31:19.152Z,41.00
2022-08-17T16:34:16.306Z,41.75
2022-08-17T16:36:37.365Z,42.47
2022-08-17T16:39:06.686Z,42.51
2022-08-17T16:41:46.618Z,42.40
2022-08-17T16:44:16.805Z,42.72
2022-08-17T16:46:45.998Z,41.85
2022-08-17T16:49:35.969Z,42.78
2022-08-17T16:52:05.761Z,41.02
2022-08-17T16:54:35.849Z,41.72
2022-08-17T16:57:04.999Z,42.00
2022-08-17T16:59:40.749Z,41.79
2022-08-17T17:02:14.220Z,41.44
2022-08-17T17:04:47.386Z,42.13
2022-08-17T17:07:44.864Z,42.36
2022-08-17T17:10:18.110Z,41.80
2022-08-17T17:13:02.090Z,41.72
2022-08-17T17:15:42.365Z,41.58
2022-08-17T17:18:15.167Z,42.24
2022-08-17T17:20:48.793Z,41.42
2022-08-17T17:23:33.146Z,41.71
2022-08-17T17:26:12.533Z,41.95
2022-08-17T17:28:53.078Z,42.25
2022-08-17T17:31:24.100Z,42.00
2022-08-17T17:33:55.859Z,42.03
2022-08-17T17:36:27.269Z,42.02
2022-08-17T17:39:01.262Z,43.16
2022-08-17T17:41:34.932Z,42.00
2022-08-17T17:44:09.125Z,42.92
2022-08-17T17:46:40.805Z,44.53
2022-08-17T17:49:10.525Z,43.51
2022-08-17T17:52:02.832Z,43.92
2022-08-17T17:54:49.882Z,44.12
2022-08-17T17:57:27.621Z,44.77
2022-08-17T18:00:03.524Z,45.62
2022-08-17T18:02:52.594Z,45.93
2022-08-17T18:05:35.731Z,45.68
2022-08-17T18:08:15.757Z,46.43
2022-08-17T18:10:50.842Z,47.37
2022-08-17T18:13:35.341Z,47.35
2022-08-17T18:16:07.883Z,48.17
2022-08-17T18:18:40.580Z,48.26
2022-08-17T18:21:16.742Z,48.90
2022-08-17T18:23:51.784Z,49.05
2022-08-17T18:26:38.015Z,48.92
2022-08-17T18:29:22.278Z,49.75
2022-08-17T18:32:10.302Z,49.60
2022-08-17T18:34:46.987Z,50.74
2022-08-17T18:37:32.835Z,50.28
2022-08-17T18:40:04.696Z,51.42
2022-08-17T18:42:32.655Z,52.19
2022-08-17T18:45:01.946Z,52.28
2022-08-17T18:47:30.571Z,52.67
2022-08-17T18:50:02.253Z,52.68
2022-08-17T18:52:32.373Z,53.02
2022-08-17T18:55:09.663Z,52.80
2022-08-17T18:57:40.820Z,53.28
2022-08-17T19:00:18.514Z,53.55
2022-08-17T19:02:53.402Z,54.51
2022-08-17T19:05:34.201Z,54.52
2022-08-17T19:08:22.411Z,53.81
2022-08-17T19:10:52.962Z,54.67
2022-08-17T19:13:25.568Z,55.49
2022-08-17T19:16:07.793Z,55.67
2022-08-17T19:18:47.295Z,55.61
2022-08-17T19:21:20.585Z,56.35
2022-08-17T19:23:54.574Z,56.17
2022-08-17T19:26:53.884Z,56.18
2022-08-17T19:29:19.524Z,56.72
2022-08-17T19:31:52.764Z,56.72
2022-08-17T19:34:32.338Z,57.21
2022-08-17T19:37:08.850Z,57.83
2022-08-17T19:39:44.021Z,57.51
2022-08-17T19:42:16.149Z,58.06
2022-08-17T19:44:55.192Z,57.73
2022-08-17T19:47:54.238Z,58.38
2022-08-17T19:50:31.058Z,58.49
2022-08-17T19:53:07.201Z,58.42
2022-08-17T19:55:47.552Z,59.00
2022-08-17T19:58:42.925Z,58.96
2022-08-17T20:01:18.583Z,59.50
2022-08-17T20:03:54.471Z,59.27
2022-08-17T20:06:24.004Z,59.47
2022-08-17T20:08:59.415Z,59.34
2022-08-17T20:11:33.207Z,59.90
2022-08-17T20:14:05.588Z,60.27
2022-08-17T20:16:34.371Z,60.67
2022-08-17T20:19:08.770Z,60.72
2022-08-17T20:21:42.304Z,60.60
2022-08-17T20:24:20.907Z,60.71
2022-08-17T20:26:58.552Z,60.94
2022-08-17T20:29:40.287Z,61.35
2022-08-17T20:32:25.205Z,61.11
2022-08-17T20:35:08.935Z,61.49
2022-08-17T20:37:43.004Z,61.47
2022-08-17T20:40:25.825Z,61.35
2022-08-17T20:42:53.751Z,62.11
2022-08-17T20:45:57.682Z,61.79
2022-08-17T20:48:38.723Z,62.28
2022-08-17T20:51:22.303Z,62.09
2022-08-17T20:54:26.372Z,62.56
2022-08-17T20:56:57.680Z,62.72
2022-08-17T20:59:55.105Z,62.73
2022-08-17T21:02:26.237Z,62.59
2022-08-17T21:05:07.302Z,62.74
2022-08-17T21:07:58.852Z,62.72
2022-08-17T21:10:36.451Z,62.67
2022-08-17T21:13:46.708Z,62.91
2022-08-17T21:16:36.024Z,63.23
2022-08-17T21:19:19.477Z,63.95
2022-08-17T21:22:02.781Z,63.56
2022-08-17T21:24:46.562Z,63.62
2022-08-17T21:27:28.360Z,63.81
2022-08-17T21:30:22.178Z,63.75
2022-08-17T21:33:25.408Z,63.77
2022-08-17T21:36:16.375Z,64.45
2022-08-17T21:39:02.596Z,63.94
2022-08-17T21:41:36.480Z,64.61
2022-08-17T21:44:13.087Z,64.37
2022-08-17T21:46:46.529Z,64.75
2022-08-17T21:49:17.760Z,64.90
2022-08-17T21:51:51.338Z,65.10
2022-08-17T21:54:31.351Z,64.87
2022-08-17T21:57:03.070Z,64.91
2022-08-17T21:59:35.927Z,64.63
2022-08-17T22:02:06.807Z,64.85
2022-08-17T22:04:37.744Z,64.67
2022-08-17T22:07:08.287Z,64.69
2022-08-17T22:09:43.122Z,64.87
2022-08-17T22:12:17.148Z,65.39
2022-08-17T22:14:51.586Z,65.26
2022-08-17T22:17:24.679Z,65.20
2022-08-17T22:19:56.807Z,65.27
2022-08-17T22:22:32.840Z,65.37
2022-08-17T22:25:03.436Z,65.68
2022-08-17T22:27:56.419Z,65.21
2022-08-17T22:30:36.196Z,65.58
2022-08-17T22:33:36.212Z,65.87
2022-08-17T22:36:28.880Z,65.77
2022-08-17T22:38:59.931Z,66.48
2022-08-17T22:41:42.184Z,66.35
2022-08-17T22:44:24.951Z,66.22
2022-08-17T22:47:11.742Z,66.41
2022-08-17T22:49:53.167Z,66.29
2022-08-17T22:52:33.299Z,66.58
2022-08-17T22:55:23.020Z,66.72
2022-08-17T22:58:09.665Z,66.43
2022-08-17T23:00:43.211Z,66.70
2022-08-17T23:03:18.078Z,66.60
2022-08-17T23:06:03.361Z,66.78
2022-08-17T23:08:34.233Z,66.57
2022-08-17T23:11:03.877Z,67.27
2022-08-17T23:13:33.294Z,67.30
2022-08-17T23:16:02.618Z,67.73
2022-08-17T23:18:30.488Z,67.16
2022-08-17T23:20:58.300Z,67.44
2022-08-17T23:23:26.512Z,67.79
2022-08-17T23:25:54.502Z,67.47
2022-08-17T23:28:22.390Z,67.95
2022-08-17T23:30:50.338Z,68.19
2022-08-17T23:33:22.510Z,67.66
2022-08-17T23:35:50.353Z,67.84
2022-08-17T23:38:18.173Z,68.22
2022-08-17T23:40:46.468Z,68.34
2022-08-17T23:43:24.655Z,68.25
2022-08-17T23:45:56.398Z,68.12
2022-08-17T23:48:35.844Z,67.84
2022-08-17T23:51:09.672Z,68.41
2022-08-17T23:53:42.623Z,68.19
2022-08-17T23:56:11.690Z,68.49
2022-08-17T23:58:41.865Z,68.20
